createdAt,value
2023-03-17T00:02:00.675Z,66.49
2023-03-17T00:04:43.781Z,66.72
2023-03-17T00:07:26.344Z,66.88
2023-03-17T00:10:08.840Z,67.06
2023-03-17T00:12:57.652Z,67.57
2023-03-17T00:15:43.806Z,68.19
2023-03-17T00:18:28.624Z,68.32
2023-03-17T00:21:09.378Z,68.79
2023-03-17T00:23:50.134Z,68.36
2023-03-17T00:26:23.432Z,68.71
2023-03-17T00:29:14.250Z,68.88
2023-03-17T00:32:01.070Z,68.85
2023-03-17T00:34:47.053Z,68.98
2023-03-17T00:37:31.683Z,69.38
2023-03-17T00:40:16.472Z,69.04
2023-03-17T00:43:01.943Z,68.99
2023-03-17T00:45:38.630Z,69.54
2023-03-17T00:48:23.598Z,69.49
2023-03-17T00:51:02.208Z,68.96
2023-03-17T00:53:39.389Z,69.30
2023-03-17T00:56:26.557Z,69.12
2023-03-17T00:59:10.616Z,69.48
2023-03-17T01:01:53.520Z,69.56
2023-03-17T01:04:35.530Z,70.65
2023-03-17T01:07:15.957Z,71.15
2023-03-17T01:09:51.046Z,70.85
2023-03-17T01:12:25.549Z,70.43
2023-03-17T01:15:10.218Z,70.14
2023-03-17T01:17:52.268Z,70.08
2023-03-17T01:20:36.317Z,70.79
2023-03-17T01:23:09.397Z,70.73
2023-03-17T01:25:46.380Z,70.84
2023-03-17T01:28:29.367Z,71.07
2023-03-17T01:31:06.952Z,70.77
2023-03-17T01:33:51.414Z,69.82
2023-03-17T01:36:33.359Z,69.96
2023-03-17T01:39:08.503Z,69.59
2023-03-17T01:41:50.101Z,70.22
2023-03-17T01:44:25.882Z,70.98
2023-03-17T01:47:11.097Z,70.17
2023-03-17T01:49:49.006Z,70.82
2023-03-17T01:55:25.554Z,71.20
2023-03-17T01:58:04.931Z,70.73
2023-03-17T02:00:50.071Z,70.95
2023-03-17T02:03:31.134Z,70.46
2023-03-17T02:06:10.646Z,70.91
2023-03-17T02:09:07.444Z,70.83
2023-03-17T02:11:43.967Z,71.69
2023-03-17T02:14:27.568Z,71.67
2023-03-17T02:17:19.347Z,71.73
2023-03-17T02:20:08.650Z,71.78
2023-03-17T02:22:47.512Z,71.56
2023-03-17T02:25:37.482Z,71.66
2023-03-17T02:28:22.679Z,71.42
2023-03-17T02:30:56.580Z,70.78
2023-03-17T02:33:37.764Z,70.69
2023-03-17T02:36:19.505Z,70.62
2023-03-17T02:39:09.808Z,70.55
2023-03-17T02:41:49.195Z,69.90
2023-03-17T02:44:30.359Z,70.78
2023-03-17T02:47:13.267Z,70.68
2023-03-17T02:49:51.866Z,70.63
2023-03-17T02:52:23.170Z,70.50
2023-03-17T02:55:05.397Z,70.33
2023-03-17T02:57:51.078Z,70.04
2023-03-17T03:00:39.810Z,70.18
2023-03-17T03:03:21.614Z,70.04
2023-03-17T03:06:00.022Z,70.52
2023-03-17T03:08:41.415Z,69.75
2023-03-17T03:11:27.609Z,69.74
2023-03-17T03:14:03.069Z,69.39
2023-03-17T03:16:48.288Z,69.54
2023-03-17T03:19:34.555Z,69.49
2023-03-17T03:22:14.831Z,69.47
2023-03-17T03:24:53.454Z,69.67
2023-03-17T03:27:42.572Z,69.93
2023-03-17T03:30:25.609Z,69.65
2023-03-17T03:33:01.691Z,69.70
2023-03-17T03:35:45.828Z,69.34
2023-03-17T03:38:22.355Z,69.18
2023-03-17T03:40:58.110Z,69.51
2023-03-17T03:43:44.328Z,69.78
2023-03-17T03:46:27.351Z,69.92
2023-03-17T03:49:02.043Z,69.95
2023-03-17T03:51:39.465Z,69.95
2023-03-17T03:54:24.098Z,70.10
2023-03-17T03:57:07.190Z,69.91
2023-03-17T03:59:48.276Z,70.17
2023-03-17T04:02:25.193Z,70.02
2023-03-17T04:05:03.601Z,69.69
2023-03-17T04:07:45.142Z,69.35
2023-03-17T04:10:21.484Z,69.04
2023-03-17T04:13:00.600Z,69.18
2023-03-17T04:16:01.714Z,69.28
2023-03-17T04:18:39.147Z,69.37
2023-03-17T04:21:15.290Z,69.41
2023-03-17T04:23:53.637Z,69.16
2023-03-17T04:26:39.996Z,69.18
2023-03-17T04:29:19.729Z,69.30
2023-03-17T04:32:01.686Z,69.10
2023-03-17T04:34:42.070Z,68.92
2023-03-17T04:37:19.108Z,69.45
2023-03-17T04:39:58.761Z,69.97
2023-03-17T04:42:40.192Z,70.39
2023-03-17T04:45:19.373Z,70.39
2023-03-17T04:48:01.894Z,70.59
2023-03-17T04:50:43.534Z,69.75
2023-03-17T04:53:26.841Z,69.50
2023-03-17T04:56:05.742Z,70.37
2023-03-17T04:58:40.134Z,70.10
2023-03-17T05:01:19.614Z,70.93
2023-03-17T05:04:03.945Z,71.04
2023-03-17T05:06:42.973Z,71.13
2023-03-17T05:09:20.512Z,71.17
2023-03-17T05:11:57.454Z,71.41
2023-03-17T05:14:33.717Z,71.46
2023-03-17T05:17:07.857Z,71.59
2023-03-17T05:19:55.601Z,71.48
2023-03-17T05:22:42.493Z,71.21
2023-03-17T05:25:21.612Z,71.32
2023-03-17T05:27:56.851Z,70.85
2023-03-17T05:30:41.644Z,71.14
2023-03-17T05:33:24.833Z,71.48
2023-03-17T05:36:04.576Z,71.60
2023-03-17T05:38:38.732Z,71.62
2023-03-17T05:41:22.622Z,71.81
2023-03-17T05:43:58.913Z,71.83
2023-03-17T05:46:37.780Z,71.88
2023-03-17T05:49:19.761Z,71.86
2023-03-17T05:52:16.667Z,71.34
2023-03-17T05:54:53.698Z,71.15
2023-03-17T05:57:36.858Z,70.93
2023-03-17T06:03:15.391Z,70.54
2023-03-17T06:05:55.525Z,70.73
2023-03-17T06:08:54.279Z,69.84
2023-03-17T06:11:44.811Z,70.07
2023-03-17T06:14:27.121Z,70.33
2023-03-17T06:17:05.416Z,70.86
2023-03-17T06:19:49.430Z,70.44
2023-03-17T06:22:46.291Z,69.18
2023-03-17T06:25:37.765Z,69.75
2023-03-17T06:28:15.026Z,69.57
2023-03-17T06:30:52.864Z,69.62
2023-03-17T06:33:28.303Z,70.03
2023-03-17T06:36:06.181Z,70.79
2023-03-17T06:38:51.452Z,70.57
2023-03-17T06:41:33.885Z,69.45
2023-03-17T06:44:15.175Z,68.83
2023-03-17T06:46:55.997Z,69.02
2023-03-17T06:49:51.162Z,69.06
2023-03-17T06:52:40.818Z,68.41
2023-03-17T06:55:18.724Z,68.11
2023-03-17T06:58:01.765Z,68.06
2023-03-17T07:00:42.070Z,67.98
2023-03-17T07:03:22.377Z,66.87
2023-03-17T07:06:05.225Z,66.46
2023-03-17T07:08:52.675Z,66.67
2023-03-17T07:11:40.063Z,66.63
2023-03-17T07:14:29.022Z,67.05
2023-03-17T07:17:06.302Z,66.38
2023-03-17T07:19:47.358Z,67.04
2023-03-17T07:22:24.929Z,67.36
2023-03-17T07:24:58.219Z,67.35
2023-03-17T07:27:34.242Z,65.62
2023-03-17T07:30:26.410Z,66.42
2023-03-17T07:33:04.850Z,67.14
2023-03-17T07:35:49.430Z,66.68
2023-03-17T07:38:28.311Z,66.45
2023-03-17T07:41:17.643Z,64.47
2023-03-17T07:43:54.530Z,63.83
2023-03-17T07:46:35.862Z,63.50
2023-03-17T07:49:41.383Z,63.34
2023-03-17T07:52:24.833Z,64.63
2023-03-17T07:54:59.433Z,64.89
2023-03-17T07:57:34.339Z,64.94
2023-03-17T08:00:16.358Z,64.80
2023-03-17T08:03:09.819Z,64.83
2023-03-17T08:05:48.347Z,63.79
2023-03-17T08:08:30.865Z,63.59
2023-03-17T08:11:11.575Z,63.43
2023-03-17T08:13:51.850Z,63.57
2023-03-17T08:16:30.994Z,63.25
2023-03-17T08:19:20.084Z,63.62
2023-03-17T08:22:00.726Z,63.43
2023-03-17T08:24:42.968Z,62.97
2023-03-17T08:27:41.310Z,63.36
2023-03-17T08:30:33.811Z,62.46
2023-03-17T08:33:14.753Z,63.01
2023-03-17T08:36:06.607Z,62.59
2023-03-17T08:38:49.526Z,62.16
2023-03-17T08:41:32.424Z,63.49
2023-03-17T08:44:10.381Z,60.82
2023-03-17T08:46:53.168Z,60.69
2023-03-17T08:49:29.350Z,61.73
2023-03-17T08:52:14.246Z,61.64
2023-03-17T08:54:54.432Z,61.83
2023-03-17T08:57:42.222Z,61.35
2023-03-17T09:00:24.675Z,59.28
2023-03-17T09:03:01.793Z,58.89
2023-03-17T09:05:43.793Z,60.22
2023-03-17T09:08:22.177Z,60.77
2023-03-17T09:11:02.381Z,60.12
2023-03-17T09:13:38.468Z,60.70
2023-03-17T09:16:23.315Z,60.48
2023-03-17T09:18:58.772Z,59.88
2023-03-17T09:21:34.493Z,60.53
2023-03-17T09:24:14.627Z,60.91
2023-03-17T09:26:53.774Z,60.13
2023-03-17T09:29:27.854Z,58.38
2023-03-17T09:32:02.218Z,58.94
2023-03-17T09:34:46.460Z,56.70
2023-03-17T09:37:24.186Z,56.66
2023-03-17T09:40:11.435Z,56.51
2023-03-17T09:42:59.385Z,55.28
2023-03-17T09:45:51.588Z,52.71
2023-03-17T09:48:51.135Z,53.32
2023-03-17T09:51:25.089Z,51.56
2023-03-17T09:54:17.256Z,51.00
2023-03-17T09:56:55.873Z,50.21
2023-03-17T09:59:48.505Z,49.56
2023-03-17T10:02:30.191Z,50.51
2023-03-17T10:05:15.014Z,50.67
2023-03-17T10:08:22.727Z,48.71
2023-03-17T10:11:20.455Z,48.23
2023-03-17T10:14:14.058Z,48.99
2023-03-17T10:17:05.490Z,47.88
2023-03-17T10:19:56.700Z,47.69
2023-03-17T10:22:49.206Z,47.43
2023-03-17T10:25:26.491Z,47.60
2023-03-17T10:28:15.351Z,46.77
2023-03-17T10:30:54.016Z,47.37
2023-03-17T10:33:28.743Z,44.85
2023-03-17T10:36:19.391Z,44.38
2023-03-17T10:39:05.124Z,43.77
2023-03-17T10:41:46.171Z,45.33
2023-03-17T10:44:36.117Z,44.04
2023-03-17T10:47:29.505Z,45.07
2023-03-17T10:50:33.247Z,42.90
2023-03-17T10:53:33.893Z,43.47
2023-03-17T10:56:13.063Z,45.98
2023-03-17T10:58:54.460Z,44.16
2023-03-17T11:01:57.076Z,42.54
2023-03-17T11:04:46.014Z,44.12
2023-03-17T11:07:26.833Z,43.60
2023-03-17T11:10:16.658Z,44.99
2023-03-17T11:13:01.598Z,43.89
2023-03-17T11:15:46.404Z,41.56
2023-03-17T11:18:35.330Z,41.51
2023-03-17T11:21:25.251Z,40.65
2023-03-17T11:24:06.179Z,41.35
2023-03-17T11:27:13.897Z,40.08
2023-03-17T11:30:19.264Z,40.62
2023-03-17T11:33:03.116Z,38.04
2023-03-17T11:36:04.844Z,39.00
2023-03-17T11:39:05.322Z,38.26
2023-03-17T11:42:04.615Z,39.24
2023-03-17T11:45:13.285Z,37.71
2023-03-17T11:47:59.289Z,35.04
2023-03-17T11:50:50.399Z,37.14
2023-03-17T11:54:03.273Z,37.47
2023-03-17T11:56:43.106Z,35.30
2023-03-17T11:59:45.747Z,35.58
2023-03-17T12:02:47.201Z,35.77
2023-03-17T12:05:32.765Z,34.50
2023-03-17T12:08:18.695Z,34.40
2023-03-17T12:10:59.372Z,34.54
2023-03-17T12:16:48.207Z,33.36
2023-03-17T12:19:31.748Z,31.14
2023-03-17T12:22:26.174Z,31.03
2023-03-17T12:25:23.338Z,33.53
2023-03-17T12:28:16.653Z,34.27
2023-03-17T12:30:59.731Z,31.21
2023-03-17T12:33:57.603Z,31.51
2023-03-17T12:36:47.473Z,31.59
2023-03-17T12:39:29.425Z,31.29
2023-03-17T12:42:31.943Z,29.67
2023-03-17T12:45:46.703Z,31.37
2023-03-17T12:48:34.865Z,30.83
2023-03-17T12:51:48.848Z,29.78
2023-03-17T12:54:36.695Z,30.62
2023-03-17T12:57:23.326Z,29.15
2023-03-17T13:00:12.613Z,31.57
2023-03-17T13:03:29.002Z,29.48
2023-03-17T13:06:39.887Z,28.55
2023-03-17T13:09:34.152Z,30.52
2023-03-17T13:12:31.920Z,30.47
2023-03-17T13:15:27.828Z,31.96
2023-03-17T13:18:40.316Z,29.04
2023-03-17T13:21:34.017Z,29.45
2023-03-17T13:24:29.498Z,29.57
2023-03-17T13:27:10.582Z,31.25
2023-03-17T13:29:56.899Z,29.88
2023-03-17T13:33:10.069Z,29.98
2023-03-17T13:36:03.326Z,30.00
2023-03-17T13:39:27.544Z,28.10
2023-03-17T13:42:28.285Z,28.53
2023-03-17T13:45:33.501Z,29.19
2023-03-17T13:48:35.168Z,28.24
2023-03-17T13:51:18.752Z,28.18
2023-03-17T13:54:02.642Z,30.50
2023-03-17T13:57:02.494Z,30.69
2023-03-17T13:59:58.953Z,30.13
2023-03-17T14:02:44.332Z,30.42
2023-03-17T14:05:31.293Z,29.11
2023-03-17T14:08:20.364Z,28.48
2023-03-17T14:11:01.912Z,28.29
2023-03-17T14:13:50.025Z,30.10
2023-03-17T14:16:31.629Z,28.93
2023-03-17T14:19:30.750Z,30.69
2023-03-17T14:22:25.007Z,30.91
2023-03-17T14:25:04.216Z,31.20
2023-03-17T14:27:39.337Z,30.50
2023-03-17T14:30:22.124Z,29.86
2023-03-17T14:32:59.902Z,30.00
2023-03-17T14:35:49.604Z,29.89
2023-03-17T14:38:32.769Z,29.65
2023-03-17T14:41:30.707Z,29.68
2023-03-17T14:44:11.127Z,29.64
2023-03-17T14:47:05.361Z,29.75
2023-03-17T14:49:43.529Z,28.92
2023-03-17T14:52:32.807Z,28.80
2023-03-17T14:55:12.601Z,29.40
2023-03-17T14:57:55.008Z,29.45
2023-03-17T15:00:57.535Z,30.26
2023-03-17T15:03:42.728Z,29.63
2023-03-17T15:06:37.320Z,29.16
2023-03-17T15:09:33.860Z,28.86
2023-03-17T15:12:21.384Z,28.62
2023-03-17T15:15:05.155Z,28.81
2023-03-17T15:17:44.663Z,29.06
2023-03-17T15:20:24.324Z,30.05
2023-03-17T15:23:14.315Z,29.40
2023-03-17T15:25:58.584Z,28.27
2023-03-17T15:28:43.807Z,27.89
2023-03-17T15:31:31.580Z,28.03
2023-03-17T15:34:10.380Z,28.57
2023-03-17T15:36:50.125Z,28.07
2023-03-17T15:39:29.290Z,27.13
2023-03-17T15:42:05.620Z,27.67
2023-03-17T15:44:43.109Z,28.24
2023-03-17T15:47:25.566Z,28.12
2023-03-17T15:50:17.547Z,27.87
2023-03-17T15:52:56.454Z,28.07
2023-03-17T15:55:34.636Z,27.88
2023-03-17T15:58:12.435Z,27.95
2023-03-17T16:00:59.500Z,28.64
2023-03-17T16:03:40.421Z,28.50
2023-03-17T16:06:26.409Z,28.14
2023-03-17T16:09:09.592Z,28.67
2023-03-17T16:11:54.917Z,28.29
2023-03-17T16:14:36.140Z,29.50
2023-03-17T16:17:22.783Z,28.65
2023-03-17T16:20:06.304Z,29.84
2023-03-17T16:22:51.049Z,30.76
2023-03-17T16:25:32.674Z,30.29
2023-03-17T16:28:22.587Z,29.26
2023-03-17T16:31:03.659Z,29.79
2023-03-17T16:33:45.822Z,29.31
2023-03-17T16:36:33.586Z,30.17
2023-03-17T16:39:12.572Z,29.65
2023-03-17T16:41:51.334Z,30.08
2023-03-17T16:44:40.385Z,30.36
2023-03-17T16:47:19.995Z,30.86
2023-03-17T16:50:04.833Z,31.68
2023-03-17T16:53:00.290Z,31.50
2023-03-17T16:55:34.353Z,32.16
2023-03-17T16:58:22.752Z,32.45
2023-03-17T17:01:11.614Z,33.12
2023-03-17T17:03:47.486Z,34.21
2023-03-17T17:06:28.261Z,33.12
2023-03-17T17:09:12.859Z,33.03
2023-03-17T17:11:51.208Z,34.41
2023-03-17T17:14:32.406Z,35.28
2023-03-17T17:17:20.098Z,35.96
2023-03-17T17:19:58.731Z,36.25
2023-03-17T17:22:44.317Z,37.01
2023-03-17T17:25:25.392Z,37.88
2023-03-17T17:28:05.033Z,37.91
2023-03-17T17:30:50.106Z,38.49
2023-03-17T17:33:27.187Z,38.83
2023-03-17T17:36:02.601Z,39.42
2023-03-17T17:38:52.824Z,39.04
2023-03-17T17:41:35.698Z,39.57
2023-03-17T17:44:19.904Z,39.83
2023-03-17T17:47:03.913Z,39.59
2023-03-17T17:49:38.747Z,39.75
2023-03-17T17:52:25.192Z,39.60
2023-03-17T17:55:01.366Z,39.52
2023-03-17T17:58:07.416Z,39.19
2023-03-17T18:00:39.360Z,39.00
2023-03-17T18:03:13.582Z,39.04
2023-03-17T18:05:49.809Z,39.50
2023-03-17T18:08:27.898Z,40.32
2023-03-17T18:11:05.707Z,40.40
2023-03-17T18:13:45.126Z,41.18
2023-03-17T18:16:31.324Z,41.73
2023-03-17T18:19:15.025Z,41.88
2023-03-17T18:21:48.651Z,42.81
2023-03-17T18:24:47.431Z,43.10
2023-03-17T18:27:24.684Z,42.19
2023-03-17T18:30:09.658Z,42.36
2023-03-17T18:32:51.830Z,41.38
2023-03-17T18:35:27.922Z,41.77
2023-03-17T18:38:11.997Z,42.45
2023-03-17T18:40:54.139Z,42.94
2023-03-17T18:43:36.620Z,42.83
2023-03-17T18:46:15.414Z,42.77
2023-03-17T18:48:59.142Z,43.36
2023-03-17T18:51:41.744Z,42.88
2023-03-17T18:54:41.180Z,42.49
2023-03-17T18:57:17.096Z,42.00
2023-03-17T19:00:06.051Z,42.74
2023-03-17T19:02:42.090Z,42.91
2023-03-17T19:05:28.726Z,43.30
2023-03-17T19:08:26.683Z,43.44
2023-03-17T19:11:06.058Z,43.95
2023-03-17T19:13:52.248Z,43.97
2023-03-17T19:16:32.285Z,43.68
2023-03-17T19:19:16.825Z,43.50
2023-03-17T19:21:58.343Z,43.86
2023-03-17T19:24:45.231Z,44.35
2023-03-17T19:27:28.977Z,44.88
2023-03-17T19:30:15.048Z,45.10
2023-03-17T19:32:56.764Z,45.36
2023-03-17T19:35:53.907Z,45.11
2023-03-17T19:38:35.840Z,45.51
2023-03-17T19:41:13.721Z,46.20
2023-03-17T19:43:45.165Z,44.54
2023-03-17T19:46:25.806Z,44.95
2023-03-17T19:49:09.378Z,44.63
2023-03-17T19:51:53.885Z,44.79
2023-03-17T19:54:28.561Z,45.17
2023-03-17T19:57:02.349Z,44.75
2023-03-17T19:59:35.611Z,44.58
2023-03-17T20:02:08.396Z,44.64
2023-03-17T20:04:48.714Z,44.61
2023-03-17T20:07:27.739Z,45.16
2023-03-17T20:10:03.160Z,44.58
2023-03-17T20:12:42.792Z,44.53
2023-03-17T20:15:37.281Z,45.18
2023-03-17T20:18:14.545Z,45.54
2023-03-17T20:20:51.147Z,45.78
2023-03-17T20:23:28.537Z,45.32
2023-03-17T20:26:19.999Z,45.21
2023-03-17T20:28:53.665Z,45.78
2023-03-17T20:31:47.570Z,46.21
2023-03-17T20:34:42.407Z,46.33
2023-03-17T20:37:41.045Z,47.01
2023-03-17T20:40:23.012Z,46.98
2023-03-17T20:43:04.131Z,47.02
2023-03-17T20:45:41.903Z,47.06
2023-03-17T20:48:17.294Z,47.22
2023-03-17T20:50:58.191Z,47.92
2023-03-17T20:54:08.493Z,47.96
2023-03-17T20:57:05.208Z,47.86
2023-03-17T20:59:44.055Z,48.22
2023-03-17T21:02:26.441Z,48.84
2023-03-17T21:05:11.530Z,48.71
2023-03-17T21:07:57.940Z,48.75
2023-03-17T21:10:37.213Z,48.58
2023-03-17T21:13:17.089Z,48.24
2023-03-17T21:16:04.164Z,48.60
2023-03-17T21:18:43.722Z,49.08
2023-03-17T21:21:21.649Z,48.90
2023-03-17T21:24:11.488Z,48.84
2023-03-17T21:27:02.950Z,49.10
2023-03-17T21:29:52.604Z,49.34
2023-03-17T21:32:29.745Z,49.43
2023-03-17T21:35:18.920Z,49.66
2023-03-17T21:38:03.987Z,50.06
2023-03-17T21:40:40.549Z,50.36
2023-03-17T21:43:25.689Z,50.22
2023-03-17T21:46:14.787Z,49.86
2023-03-17T21:48:53.869Z,49.62
2023-03-17T21:54:29.445Z,49.77
2023-03-17T21:57:08.682Z,49.63
2023-03-17T21:59:48.078Z,49.51
2023-03-17T22:02:30.661Z,49.98
2023-03-17T22:05:13.888Z,49.84
2023-03-17T22:07:58.430Z,49.99
2023-03-17T22:10:35.860Z,49.83
2023-03-17T22:13:28.136Z,49.83
2023-03-17T22:16:17.152Z,50.10
2023-03-17T22:19:02.774Z,50.67
2023-03-17T22:21:41.121Z,50.44
2023-03-17T22:24:26.223Z,50.51
2023-03-17T22:27:02.473Z,50.72
2023-03-17T22:29:38.714Z,50.91
2023-03-17T22:32:27.230Z,51.21
2023-03-17T22:35:04.797Z,51.47
2023-03-17T22:37:42.443Z,52.09
2023-03-17T22:40:26.555Z,52.07
2023-03-17T22:43:18.825Z,52.17
2023-03-17T22:45:59.760Z,52.38
2023-03-17T22:48:41.760Z,52.04
2023-03-17T22:51:27.599Z,52.10
2023-03-17T22:54:17.834Z,52.28
2023-03-17T22:56:55.712Z,52.21
2023-03-17T22:59:38.494Z,51.98
2023-03-17T23:02:18.045Z,52.31
2023-03-17T23:05:12.451Z,52.47
2023-03-17T23:07:53.104Z,52.56
2023-03-17T23:10:32.214Z,52.91
2023-03-17T23:13:08.964Z,52.96
2023-03-17T23:15:51.679Z,52.34
2023-03-17T23:18:30.082Z,52.22
2023-03-17T23:21:18.717Z,52.61
2023-03-17T23:24:10.028Z,53.19
2023-03-17T23:26:50.877Z,53.08
2023-03-17T23:29:32.059Z,52.97
2023-03-17T23:32:20.576Z,53.39
2023-03-17T23:35:07.221Z,53.42
2023-03-17T23:37:45.324Z,53.83
2023-03-17T23:40:23.813Z,54.35
2023-03-17T23:42:59.075Z,54.39
2023-03-17T23:45:42.160Z,54.89
2023-03-17T23:48:20.869Z,55.01
2023-03-17T23:50:58.042Z,55.39
2023-03-17T23:53:33.536Z,55.86
2023-03-17T23:56:15.069Z,56.20
2023-03-17T23:59:02.852Z,56.52
